Etusivu
METAR-TAF:

METAR-TAF

Lentoasemat :

Orange County Airport

Montgomery, New York, Yhdysvallat

Leveyspiiri: 41-30-33N, Pituuspiiri: 074-15-54W, korkeus merenpinnasta: 111 m

Tämänhetkinen sää

Tämä raportti tehtiin 26 minuuttia sitten, kello 16.54 UTC
Tuuli 4 kn lännestä
Lämpötila 22°C
Kosteus 83%
Ilmanpaine 1003 hPa
Näkyvyys: 16.1 km
Muutamia pilviä 3800 ft:n korkeudessa
Hajonneita pilviä 7500 ft:n korkeudessa
Pilvistä 12000 ft:n korkeudessa
heikkoa sadetta

METAR: KMGJ 031654Z AUTO 26004KT 10SM -RA FEW038 BKN075 OVC120 22/19 A2962 RMK AO2 RAB24 SLP030 P0000 T02220189

Aika: 13:20 (17:20 UTC)


TAF: puuttuu

Säähavainnot ja -ennusteet yli 4000 lentoasemalta (METAR- ja TAF-raportit).

Käytössä olevat sääasemat on merkitty karttaan keltaisilla ja punaisilla pisteillä.

Aseta hiiri pisteen päälle nähdäksesi sääaseman nimen.

Klikkaa sitten nähdäksesi säähavainnot ja -ennusteet.

Kartan vaihtaminen: klikkaa mustalla rastilla varustettuja vihreitä pisteitä, niin voit zoomata sisään; viivalla varustettua vihreää pistettä, niin voit zoomata ulos tai vihreitä nuolia, niin pääset viereisille kartoille.


METAR-TAF: